Time;durP1;ratioP1;P1;durP2;ratioP2;P2;SDS_P1;SDS_P2;PMS_P1;PMS_P2;Temp;Humidity;BMP_temperature;BMP_pressure;BME280_temperature;BME280_humidity;BME280_pressure;Samples;Min_cycle;Max_cycle;Signal;HPM_P1;HPM_P2
2022/09/18 00:01:43;;;;;;;0.10;0.10;;;;;;;12.27;59.47;97659.63;8414822;28;20533;-78
2022/09/18 00:05:46;;;;;;;0.00;0.00;;;;;;;12.27;59.24;97662.22;8414802;28;20452;-78
2022/09/18 00:09:48;;;;;;;0.10;0.10;;;;;;;12.40;59.09;97661.53;8414005;28;20276;-78
2022/09/18 00:13:52;;;;;;;0.10;0.10;;;;;;;12.36;59.28;97660.88;8414149;28;20227;-81
2022/09/18 00:17:56;;;;;;;0.10;0.10;;;;;;;12.25;59.42;97660.66;8413785;28;20226;-82
2022/09/18 00:21:58;;;;;;;0.00;0.00;;;;;;;12.23;59.51;97665.09;8414350;28;20465;-80
2022/09/18 00:26:01;;;;;;;0.00;0.00;;;;;;;12.18;60.10;97674.88;8414207;28;20242;-76
2022/09/18 00:30:04;;;;;;;0.00;0.00;;;;;;;12.16;60.47;97668.94;8413254;28;20226;-76
2022/09/18 00:34:13;;;;;;;0.00;0.00;;;;;;;12.13;60.52;97675.16;8414085;28;20308;-77
2022/09/18 00:38:16;;;;;;;0.10;0.10;;;;;;;12.11;60.74;97674.41;8413901;28;20242;-77
2022/09/18 00:42:19;;;;;;;0.10;0.10;;;;;;;12.18;60.93;97680.91;8413840;28;20235;-77
2022/09/18 00:46:26;;;;;;;0.10;0.10;;;;;;;12.06;61.13;97671.22;8413341;28;20234;-78
2022/09/18 00:50:31;;;;;;;0.10;0.10;;;;;;;12.09;61.82;97673.66;8413923;28;20227;-77
2022/09/18 00:54:37;;;;;;;0.10;0.10;;;;;;;12.12;61.66;97678.66;8413649;28;20411;-77
2022/09/18 00:58:40;;;;;;;0.10;0.10;;;;;;;12.20;61.63;97679.06;8413438;28;20269;-77
2022/09/18 01:02:44;;;;;;;0.10;0.10;;;;;;;12.19;61.99;97677.41;8413164;28;20380;-77
2022/09/18 01:06:52;;;;;;;0.10;0.10;;;;;;;12.27;62.42;97671.78;8412859;28;20230;-75
2022/09/18 01:11:04;;;;;;;0.10;0.10;;;;;;;12.24;62.84;97669.34;8413192;28;20234;-77
2022/09/18 01:15:12;;;;;;;0.10;0.10;;;;;;;12.48;61.77;97677.53;8412990;28;20242;-77
2022/09/18 01:19:30;;;;;;;0.10;0.10;;;;;;;12.33;62.37;97676.63;8413016;28;20270;-77
2022/09/18 01:24:00;;;;;;;0.10;0.10;;;;;;;12.35;61.85;97669.56;8413011;28;20235;-77
2022/09/18 01:28:15;;;;;;;0.10;0.10;;;;;;;12.42;61.75;97676.09;8412762;28;20226;-77
2022/09/18 01:32:22;;;;;;;0.00;0.00;;;;;;;12.43;61.92;97669.16;8412850;28;20508;-77
2022/09/18 01:36:28;;;;;;;0.10;0.10;;;;;;;12.50;61.91;97673.06;8412789;28;20230;-77
2022/09/18 01:40:34;;;;;;;0.10;0.10;;;;;;;12.36;62.42;97675.63;8415568;28;20295;-77
2022/09/18 01:44:41;;;;;;;0.10;0.10;;;;;;;12.51;62.35;97679.97;8418950;28;20238;-77
2022/09/18 01:48:47;;;;;;;0.00;0.00;;;;;;;13.00;60.92;97686.66;8417235;28;20412;-78
2022/09/18 01:52:54;;;;;;;0.00;0.00;;;;;;;12.70;61.99;97679.75;8418608;28;20230;-77
2022/09/18 01:56:59;;;;;;;0.00;0.00;;;;;;;12.69;62.16;97689.28;8418971;28;20525;-78
2022/09/18 02:01:08;;;;;;;0.10;0.10;;;;;;;12.70;61.80;97690.97;8418821;28;20518;-77
2022/09/18 02:05:15;;;;;;;0.00;0.00;;;;;;;12.45;63.26;97685.47;8418357;28;20227;-77
2022/09/18 02:09:17;;;;;;;0.10;0.10;;;;;;;12.46;62.98;97687.16;8418479;28;20238;-77
2022/09/18 02:13:24;;;;;;;0.00;0.00;;;;;;;12.51;63.08;97690.34;8418598;28;20553;-75
2022/09/18 02:17:31;;;;;;;0.10;0.10;;;;;;;12.59;62.93;97693.34;8418182;28;20239;-75
2022/09/18 02:21:34;;;;;;;0.10;0.10;;;;;;;12.64;63.18;97680.06;8417930;28;20227;-75
2022/09/18 02:25:43;;;;;;;0.10;0.10;;;;;;;12.47;63.80;97676.69;8418015;28;20421;-75
2022/09/18 02:29:46;;;;;;;0.00;0.00;;;;;;;12.65;63.44;97682.59;8417716;28;20325;-75
2022/09/18 02:33:52;;;;;;;0.00;0.00;;;;;;;12.63;63.42;97683.63;8417289;28;20272;-75
2022/09/18 02:37:58;;;;;;;0.00;0.00;;;;;;;12.59;63.73;97680.34;8417872;28;20237;-76
2022/09/18 02:42:10;;;;;;;0.00;0.00;;;;;;;12.49;64.09;97689.59;8417137;28;20239;-75
2022/09/18 02:46:21;;;;;;;0.10;0.10;;;;;;;12.58;63.44;97673.47;8417067;28;20396;-76
2022/09/18 02:50:29;;;;;;;0.10;0.10;;;;;;;12.65;63.49;97687.78;8417358;28;20238;-76
2022/09/18 02:54:37;;;;;;;0.00;0.00;;;;;;;12.74;62.57;97682.97;8416362;28;20234;-78
2022/09/18 02:58:44;;;;;;;0.00;0.00;;;;;;;12.64;62.96;97677.47;8417213;28;20226;-77
2022/09/18 03:02:47;;;;;;;0.10;0.10;;;;;;;12.86;62.86;97677.91;8416779;28;20246;-78
2022/09/18 03:06:51;;;;;;;0.10;0.10;;;;;;;12.90;62.08;97678.56;8416305;28;20230;-78
2022/09/18 03:10:54;;;;;;;0.10;0.10;;;;;;;12.72;62.84;97675.28;8416598;28;20227;-77
2022/09/18 03:14:56;;;;;;;0.10;0.10;;;;;;;12.83;62.02;97677.25;8416339;28;20280;-78
2022/09/18 03:18:59;;;;;;;0.10;0.10;;;;;;;12.80;62.44;97678.28;8416378;28;20246;-77
2022/09/18 03:23:03;;;;;;;0.00;0.00;;;;;;;12.70;62.59;97677.97;8415946;28;20258;-77
2022/09/18 03:27:06;;;;;;;0.00;0.00;;;;;;;12.81;62.56;97692.09;8416025;28;20238;-77
2022/09/18 03:31:09;;;;;;;0.10;0.10;;;;;;;12.85;62.55;97683.19;8416109;28;20231;-77
2022/09/18 03:35:12;;;;;;;0.00;0.00;;;;;;;12.76;62.40;97676.78;8415907;28;20255;-77
2022/09/18 03:39:17;;;;;;;0.10;0.10;;;;;;;12.63;62.97;97679.25;8415503;28;20239;-77
2022/09/18 03:43:20;;;;;;;0.10;0.10;;;;;;;12.56;63.55;97671.91;8415346;28;20556;-78
2022/09/18 03:47:23;;;;;;;0.00;0.00;;;;;;;12.70;62.55;97664.16;8415138;28;20246;-78
2022/09/18 03:51:25;;;;;;;0.00;0.00;;;;;;;12.80;62.14;97674.84;8415317;28;20230;-78
2022/09/18 03:55:29;;;;;;;0.10;0.10;;;;;;;12.70;62.45;97675.38;8415224;28;20295;-77
2022/09/18 03:59:32;;;;;;;0.10;0.10;;;;;;;12.61;62.72;97681.09;8415000;28;20234;-78
2022/09/18 04:03:35;;;;;;;0.00;0.00;;;;;;;12.63;62.55;97679.25;8413837;28;20237;-77
2022/09/18 04:07:38;;;;;;;0.10;0.10;;;;;;;12.84;61.97;97684.97;8414813;28;20304;-77
2022/09/18 04:11:42;;;;;;;0.00;0.00;;;;;;;12.69;62.01;97684.09;8414754;28;20326;-78
2022/09/18 04:15:48;;;;;;;0.00;0.00;;;;;;;12.63;62.58;97683.63;8414680;28;20239;-77
2022/09/18 04:19:51;;;;;;;0.10;0.10;;;;;;;12.67;62.21;97674.72;8413802;28;20458;-78
2022/09/18 04:23:56;;;;;;;0.10;0.10;;;;;;;12.62;62.84;97672.41;8414057;28;20238;-78
2022/09/18 04:28:00;;;;;;;0.10;0.10;;;;;;;12.53;62.56;97670.31;8414055;28;20239;-76
2022/09/18 04:32:04;;;;;;;0.10;0.10;;;;;;;12.46;63.17;97675.00;8414014;28;20230;-76
2022/09/18 04:36:07;;;;;;;0.00;0.00;;;;;;;12.62;62.37;97682.78;8414140;28;20250;-76
2022/09/18 04:40:10;;;;;;;0.10;0.10;;;;;;;12.25;63.67;97690.03;8413985;28;20234;-76
2022/09/18 04:44:15;;;;;;;0.10;0.10;;;;;;;12.37;63.73;97687.69;8413892;28;20238;-77
2022/09/18 04:48:18;;;;;;;0.07;0.07;;;;;;;12.52;63.47;97686.81;8413558;28;20231;-76
2022/09/18 04:52:21;;;;;;;0.10;0.10;;;;;;;12.51;64.06;97685.16;8413787;28;20238;-76
2022/09/18 04:56:24;;;;;;;0.10;0.10;;;;;;;12.50;63.58;97684.28;8413443;28;20234;-76
2022/09/18 05:00:28;;;;;;;0.00;0.00;;;;;;;12.62;62.92;97682.78;8413607;28;20468;-77
2022/09/18 05:04:31;;;;;;;0.10;0.10;;;;;;;12.60;63.37;97687.19;8413363;28;20231;-77
2022/09/18 05:08:34;;;;;;;0.10;0.10;;;;;;;12.60;63.10;97683.78;8413110;28;20296;-77
2022/09/18 05:12:40;;;;;;;0.10;0.10;;;;;;;12.67;63.32;97685.94;8413363;28;20227;-76
2022/09/18 05:16:44;;;;;;;0.10;0.10;;;;;;;12.65;63.23;97692.97;8418272;28;20234;-77
2022/09/18 05:20:47;;;;;;;0.10;0.10;;;;;;;12.65;63.46;97690.38;8419412;28;20542;-76
2022/09/18 05:24:49;;;;;;;0.00;0.00;;;;;;;12.65;63.38;97692.97;8419692;28;20245;-77
2022/09/18 05:28:52;;;;;;;0.10;0.10;;;;;;;12.33;64.85;97697.41;8419727;28;20230;-77
2022/09/18 05:32:58;;;;;;;0.10;0.10;;;;;;;12.83;63.56;97696.31;8419540;28;20603;-77
2022/09/18 05:37:01;;;;;;;0.10;0.10;;;;;;;12.80;63.88;97693.03;8419507;28;20681;-77
2022/09/18 05:41:04;;;;;;;0.10;0.10;;;;;;;12.78;63.95;97695.72;8419323;28;20230;-77
2022/09/18 05:45:08;;;;;;;0.10;0.10;;;;;;;12.62;64.55;97698.38;8418892;28;20246;-76
2022/09/18 05:49:12;;;;;;;0.07;0.07;;;;;;;12.56;64.60;97695.28;8419167;28;20230;-77
2022/09/18 05:53:17;;;;;;;0.10;0.10;;;;;;;12.74;64.39;97709.81;8418976;28;20449;-77
2022/09/18 05:57:19;;;;;;;0.10;0.10;;;;;;;12.69;64.46;97707.47;8419004;28;20234;-77
2022/09/18 06:01:22;;;;;;;0.10;0.10;;;;;;;12.71;64.37;97697.00;8418799;28;20231;-77
2022/09/18 06:05:28;;;;;;;0.10;0.10;;;;;;;12.74;64.58;97706.38;8418502;28;20497;-77
2022/09/18 06:09:31;;;;;;;0.00;0.00;;;;;;;12.74;64.74;97701.16;8418525;28;20230;-78
2022/09/18 06:13:34;;;;;;;0.10;0.10;;;;;;;12.60;65.08;97697.59;8418381;28;20231;-77
2022/09/18 06:17:37;;;;;;;0.10;0.10;;;;;;;12.54;65.89;97712.72;8418424;28;20230;-76
2022/09/18 06:21:42;;;;;;;0.00;0.00;;;;;;;12.70;64.83;97716.13;8418010;28;20230;-77
2022/09/18 06:25:44;;;;;;;0.10;0.10;;;;;;;12.71;65.01;97720.38;8417178;28;20303;-77
2022/09/18 06:29:47;;;;;;;0.10;0.10;;;;;;;12.64;64.81;97706.91;8417534;28;20222;-76
2022/09/18 06:33:50;;;;;;;0.10;0.10;;;;;;;12.82;64.84;97712.81;8417673;28;20262;-77
2022/09/18 06:37:54;;;;;;;0.10;0.10;;;;;;;12.83;64.36;97716.22;8417473;28;20237;-78
2022/09/18 06:41:59;;;;;;;0.00;0.00;;;;;;;12.68;65.51;97707.59;8417736;28;20231;-80
2022/09/18 06:46:03;;;;;;;0.10;0.10;;;;;;;12.77;64.92;97716.59;8417303;28;20245;-78
2022/09/18 06:50:06;;;;;;;0.00;0.00;;;;;;;12.88;65.38;97722.84;8417350;28;20239;-79
2022/09/18 06:54:12;;;;;;;0.00;0.00;;;;;;;12.66;65.65;97717.19;8417521;28;20231;-78
2022/09/18 06:58:16;;;;;;;0.00;0.00;;;;;;;12.59;66.46;97726.28;8417480;28;20430;-79
2022/09/18 07:02:18;;;;;;;0.07;0.07;;;;;;;12.85;65.96;97735.16;8417487;28;20241;-78
2022/09/18 07:06:21;;;;;;;0.00;0.00;;;;;;;12.89;65.67;97734.09;8416961;28;20425;-79
2022/09/18 07:10:26;;;;;;;0.00;0.00;;;;;;;12.98;65.55;97736.13;8416575;28;20230;-78
2022/09/18 07:14:28;;;;;;;0.10;0.10;;;;;;;12.85;65.73;97733.44;8416974;28;20242;-79
2022/09/18 07:18:31;;;;;;;0.10;0.10;;;;;;;13.02;65.86;97732.47;8416317;28;20537;-79
2022/09/18 07:22:34;;;;;;;0.10;0.10;;;;;;;12.93;65.94;97733.00;8416469;28;20242;-79
2022/09/18 07:26:40;;;;;;;0.10;0.10;;;;;;;13.04;65.37;97738.41;8416318;28;20239;-80
2022/09/18 07:30:44;;;;;;;0.07;0.07;;;;;;;12.95;66.01;97738.09;8415972;28;20408;-81
2022/09/18 07:34:46;;;;;;;0.00;0.00;;;;;;;12.99;66.45;97745.63;8416022;28;20238;-77
2022/09/18 07:38:51;;;;;;;0.00;0.00;;;;;;;12.96;66.13;97748.38;8415022;28;20223;-78
2022/09/18 07:43:00;;;;;;;0.10;0.10;;;;;;;12.79;66.10;97740.72;8415545;28;20541;-79
2022/09/18 07:47:04;;;;;;;0.00;0.00;;;;;;;12.90;66.92;97743.56;8416200;28;20238;-77
2022/09/18 07:51:07;;;;;;;0.10;0.10;;;;;;;13.07;66.25;97739.97;8415382;28;20572;-78
2022/09/18 07:55:09;;;;;;;0.00;0.00;;;;;;;12.98;66.80;97740.50;8415201;28;20506;-77
2022/09/18 07:59:13;;;;;;;0.00;0.00;;;;;;;13.00;66.46;97741.25;8415094;28;20230;-78
2022/09/18 08:03:17;;;;;;;0.10;0.10;;;;;;;13.18;66.69;97747.16;8414850;28;20230;-77
2022/09/18 08:07:20;;;;;;;0.00;0.00;;;;;;;13.10;66.01;97751.03;8414677;28;20312;-76
2022/09/18 08:11:25;;;;;;;0.10;0.10;;;;;;;13.18;66.04;97752.38;8414815;28;20237;-79
2022/09/18 08:15:29;;;;;;;0.10;0.10;;;;;;;13.18;66.14;97758.41;8414752;28;20234;-79
2022/09/18 08:19:32;;;;;;;0.10;0.10;;;;;;;13.24;67.03;97758.03;8414435;28;20235;-79
2022/09/18 08:23:35;;;;;;;0.00;0.00;;;;;;;13.27;65.99;97762.25;8414400;28;20239;-77
2022/09/18 08:27:39;;;;;;;0.00;0.00;;;;;;;13.03;66.72;97754.91;8414250;28;20457;-77
2022/09/18 08:31:43;;;;;;;0.10;0.10;;;;;;;13.06;66.52;97759.09;8414303;28;20237;-77
2022/09/18 08:35:46;;;;;;;0.00;0.00;;;;;;;13.33;65.68;97761.03;8414182;28;20230;-78
2022/09/18 08:39:48;;;;;;;0.00;0.00;;;;;;;13.34;66.34;97763.56;8413056;28;20237;-78
2022/09/18 08:43:56;;;;;;;0.10;0.10;;;;;;;13.08;66.20;97752.06;8413905;28;20461;-78
2022/09/18 08:48:06;;;;;;;0.00;0.00;;;;;;;13.23;66.27;97758.97;8413550;28;20227;-78
2022/09/18 08:52:13;;;;;;;0.00;0.00;;;;;;;13.33;65.61;97741.09;8413193;28;20223;-79
2022/09/18 08:56:18;;;;;;;0.10;0.10;;;;;;;13.46;65.25;97748.97;8413306;28;20223;-78
2022/09/18 09:00:23;;;;;;;0.00;0.00;;;;;;;13.39;65.61;97751.13;8413889;28;20280;-78
2022/09/18 09:04:27;;;;;;;0.10;0.10;;;;;;;13.65;65.28;97748.72;8413546;28;20231;-78
2022/09/18 09:08:50;;;;;;;0.10;0.10;;;;;;;13.94;65.11;97746.97;8413465;28;20513;-75
2022/09/18 09:13:10;;;;;;;0.00;0.00;;;;;;;14.02;64.06;97744.72;8412545;28;20226;-78
2022/09/18 09:17:17;;;;;;;0.10;0.10;;;;;;;13.88;64.64;97748.19;8413573;28;20563;-77
2022/09/18 09:21:23;;;;;;;0.10;0.10;;;;;;;14.02;64.12;97752.53;8413508;28;20754;-78
2022/09/18 09:25:31;;;;;;;0.00;0.00;;;;;;;13.87;65.23;97745.66;8413154;28;20238;-78
2022/09/18 09:29:37;;;;;;;0.00;0.00;;;;;;;13.76;63.85;97745.47;8413182;28;20235;-79
2022/09/18 09:33:51;;;;;;;0.00;0.00;;;;;;;13.86;63.60;97747.44;8413008;28;20230;-78
2022/09/18 09:37:55;;;;;;;0.00;0.00;;;;;;;13.95;63.42;97753.00;8412481;28;20223;-78
2022/09/18 09:42:04;;;;;;;0.00;0.00;;;;;;;14.11;63.32;97732.06;8412566;28;20231;-79
2022/09/18 09:46:11;;;;;;;0.00;0.00;;;;;;;13.87;63.41;97751.69;8412631;28;21800;-79
2022/09/18 09:50:31;;;;;;;0.00;0.00;;;;;;;13.76;62.75;97748.91;8412911;28;20235;-82
2022/09/18 09:54:36;;;;;;;0.10;0.10;;;;;;;13.87;62.38;97756.91;8412701;28;20238;-80
2022/09/18 09:58:45;;;;;;;0.10;0.10;;;;;;;14.01;63.47;97755.22;8412804;28;20227;-81
2022/09/18 10:03:10;;;;;;;0.00;0.00;;;;;;;14.14;62.86;97750.94;8416589;28;20428;-79
2022/09/18 10:07:15;;;;;;;0.00;0.00;;;;;;;14.03;63.41;97751.63;8418890;28;20420;-82
2022/09/18 10:11:20;;;;;;;0.00;0.00;;;;;;;13.86;63.72;97757.84;8418520;28;20234;-82
2022/09/18 10:15:24;;;;;;;0.00;0.00;;;;;;;13.97;64.32;97759.78;8418629;28;20230;-80
2022/09/18 10:19:33;;;;;;;0.00;0.00;;;;;;;14.12;63.77;97752.78;8418114;28;20280;-81
2022/09/18 10:23:38;;;;;;;0.00;0.00;;;;;;;14.36;64.14;97750.44;8418004;28;20296;-79
2022/09/18 10:27:42;;;;;;;0.00;0.00;;;;;;;14.36;64.32;97739.19;8417815;28;20455;-82
2022/09/18 10:31:46;;;;;;;0.00;0.00;;;;;;;14.01;64.66;97753.47;8418176;28;20248;-81
2022/09/18 10:35:49;;;;;;;0.00;0.00;;;;;;;14.17;63.83;97739.50;8417619;28;20250;-82
2022/09/18 10:39:52;;;;;;;0.00;0.00;;;;;;;14.18;64.34;97743.75;8417547;28;20247;-79
2022/09/18 10:44:05;;;;;;;0.00;0.00;;;;;;;14.13;64.99;97735.44;8417493;28;20356;-80
2022/09/18 10:48:13;;;;;;;0.10;0.10;;;;;;;14.26;65.14;97734.56;8417254;28;20261;-78
2022/09/18 10:52:27;;;;;;;0.00;0.00;;;;;;;14.22;65.29;97734.81;8417404;28;20231;-79
2022/09/18 10:56:30;;;;;;;0.10;0.10;;;;;;;14.40;65.68;97725.03;8417469;28;20563;-83
2022/09/18 11:00:38;;;;;;;0.07;0.07;;;;;;;14.30;66.24;97729.13;8418089;28;20397;-83
2022/09/18 11:04:46;;;;;;;0.10;0.10;;;;;;;14.87;69.64;97728.97;8418647;28;20230;-83
2022/09/18 11:08:50;;;;;;;0.10;0.10;;;;;;;15.34;67.58;97726.72;8418275;28;20226;-85
2022/09/18 11:12:54;;;;;;;0.10;0.10;;;;;;;15.47;66.17;97719.75;8418162;28;20239;-83
2022/09/18 11:17:00;;;;;;;0.00;0.00;;;;;;;15.29;65.50;97724.44;8417126;28;20455;-83
2022/09/18 11:21:05;;;;;;;0.00;0.00;;;;;;;15.44;65.33;97715.56;8416331;28;20235;-83
2022/09/18 11:25:17;;;;;;;0.00;0.00;;;;;;;15.90;63.26;97716.81;8416423;28;20234;-82
2022/09/18 11:29:25;;;;;;;0.10;0.10;;;;;;;15.88;63.52;97713.50;8415843;28;20515;-83
2022/09/18 11:33:31;;;;;;;0.00;0.00;;;;;;;15.73;61.38;97699.72;8415823;28;20436;-84
2022/09/18 11:37:36;;;;;;;0.00;0.00;;;;;;;16.02;62.98;97702.06;8415797;28;20238;-83
2022/09/18 11:41:40;;;;;;;0.00;0.00;;;;;;;15.28;61.57;97693.25;8415539;28;20234;-80
2022/09/18 11:45:49;;;;;;;0.00;0.00;;;;;;;15.14;62.96;97684.56;8414901;28;20243;-82
2022/09/18 11:49:57;;;;;;;0.00;0.00;;;;;;;15.15;62.26;97675.78;8415070;28;20227;-82
2022/09/18 11:54:03;;;;;;;0.00;0.00;;;;;;;14.89;63.35;97680.19;8415318;28;20300;-81
2022/09/18 11:58:14;;;;;;;0.00;0.00;;;;;;;14.65;64.05;97680.84;8415027;28;20522;-82
2022/09/18 12:02:21;;;;;;;0.00;0.00;;;;;;;14.61;63.62;97668.94;8415247;28;20514;-82
2022/09/18 12:06:32;;;;;;;0.00;0.00;;;;;;;14.66;62.99;97666.88;8414640;28;20238;-82
2022/09/18 12:10:48;;;;;;;0.00;0.00;;;;;;;14.42;63.35;97677.09;8414685;28;20272;-81
2022/09/18 12:14:55;;;;;;;0.00;0.00;;;;;;;14.70;63.40;97667.53;8414262;28;20235;-82
2022/09/18 12:19:05;;;;;;;0.10;0.10;;;;;;;14.77;62.67;97666.16;8414554;28;20238;-82
2022/09/18 12:23:16;;;;;;;0.03;0.03;;;;;;;14.85;62.25;97653.47;8414184;28;20553;-78
2022/09/18 12:27:26;;;;;;;0.07;0.07;;;;;;;14.59;62.08;97655.19;8413652;28;20530;-82
2022/09/18 12:31:35;;;;;;;0.00;0.00;;;;;;;14.76;61.21;97643.66;8414104;28;20234;-81
2022/09/18 12:36:03;;;;;;;0.00;0.00;;;;;;;14.87;61.50;97642.94;8414092;28;20247;-82
2022/09/18 12:40:27;;;;;;;0.00;0.00;;;;;;;14.59;59.44;97639.56;8413202;28;20314;-81
2022/09/18 12:44:43;;;;;;;0.07;0.07;;;;;;;14.84;60.20;97630.09;8413536;28;20564;-82
2022/09/18 12:48:58;;;;;;;0.00;0.00;;;;;;;14.72;60.93;97626.56;8413313;28;20231;-80
2022/09/18 12:53:12;;;;;;;0.00;0.00;;;;;;;14.94;60.73;97625.09;8413427;28;20238;-81
2022/09/18 12:57:30;;;;;;;0.10;0.10;;;;;;;14.97;59.62;97630.94;8413511;28;20231;-82
2022/09/18 13:01:35;;;;;;;0.00;0.00;;;;;;;14.76;60.38;97635.84;8413475;28;20226;-83
2022/09/18 13:05:39;;;;;;;0.00;0.00;;;;;;;14.83;59.47;97625.81;8413474;28;20236;-81
2022/09/18 13:09:45;;;;;;;0.00;0.00;;;;;;;14.91;59.38;97623.53;8413624;28;20234;-74
2022/09/18 13:13:52;;;;;;;0.10;0.10;;;;;;;14.54;60.91;97619.91;8412853;28;20423;-81
2022/09/18 13:18:08;;;;;;;0.10;0.10;;;;;;;14.57;59.82;97619.75;8413149;28;20465;-81
2022/09/18 13:22:13;;;;;;;0.10;0.10;;;;;;;14.66;60.81;97619.16;8412822;28;20237;-82
2022/09/18 13:26:16;;;;;;;0.00;0.00;;;;;;;14.44;61.62;97622.28;8413036;28;20242;-77
2022/09/18 13:30:25;;;;;;;0.00;0.00;;;;;;;14.51;61.82;97626.16;8413130;28;20518;-74
2022/09/18 13:34:28;;;;;;;0.00;0.00;;;;;;;14.45;62.23;97621.38;8412918;28;20272;-75
2022/09/18 13:38:33;;;;;;;0.00;0.00;;;;;;;14.25;62.54;97623.47;8419024;28;20241;-75
2022/09/18 13:42:37;;;;;;;0.00;0.00;;;;;;;13.93;62.38;97620.34;8419312;28;20284;-76
2022/09/18 13:46:43;;;;;;;0.10;0.10;;;;;;;14.11;62.71;97617.47;8418808;28;20234;-75
2022/09/18 13:50:53;;;;;;;0.00;0.00;;;;;;;14.06;62.38;97618.63;8419133;28;20258;-75
2022/09/18 13:55:10;;;;;;;0.00;0.00;;;;;;;14.36;61.79;97609.75;8418478;28;20227;-76
2022/09/18 13:59:20;;;;;;;0.00;0.00;;;;;;;14.42;62.26;97608.53;8418990;28;20230;-75
2022/09/18 14:03:40;;;;;;;0.07;0.07;;;;;;;14.44;60.28;97602.28;8418640;28;20234;-76
2022/09/18 14:08:10;;;;;;;0.00;0.00;;;;;;;14.30;60.23;97612.78;8418196;28;20235;-76
2022/09/18 14:12:14;;;;;;;0.07;0.07;;;;;;;14.38;60.70;97597.47;8418250;28;20223;-76
2022/09/18 14:16:29;;;;;;;0.00;0.00;;;;;;;14.26;60.90;97603.50;8418195;28;20230;-76
2022/09/18 14:20:33;;;;;;;0.10;0.10;;;;;;;14.16;60.75;97608.44;8418322;28;20234;-77
2022/09/18 14:24:55;;;;;;;0.00;0.00;;;;;;;14.24;61.40;97605.34;8418087;28;20238;-76
2022/09/18 14:29:01;;;;;;;0.00;0.00;;;;;;;14.07;63.33;97609.06;8417318;28;20233;-77
2022/09/18 14:33:17;;;;;;;0.00;0.00;;;;;;;14.19;63.22;97610.84;8417407;28;20235;-76
2022/09/18 14:37:23;;;;;;;0.10;0.10;;;;;;;14.07;63.71;97609.88;8417142;28;20489;-77
2022/09/18 14:41:31;;;;;;;0.00;0.00;;;;;;;14.17;64.25;97617.13;8417411;28;20230;-78
2022/09/18 14:45:33;;;;;;;0.00;0.00;;;;;;;14.05;64.79;97608.28;8417667;28;20276;-77
2022/09/18 14:49:43;;;;;;;0.00;0.00;;;;;;;13.93;64.38;97604.72;8415666;28;20231;-76
2022/09/18 14:53:49;;;;;;;0.00;0.00;;;;;;;14.00;65.16;97619.00;8416623;28;20281;-77
2022/09/18 14:57:54;;;;;;;0.00;0.00;;;;;;;13.95;65.38;97615.03;8416622;28;20246;-77
2022/09/18 15:02:10;;;;;;;0.10;0.10;;;;;;;14.03;65.65;97616.22;8416668;28;20230;-79
2022/09/18 15:06:19;;;;;;;0.00;0.00;;;;;;;13.83;66.73;97620.09;8416679;28;20245;-77
2022/09/18 15:10:25;;;;;;;0.00;0.00;;;;;;;13.80;67.17;97619.44;8416860;28;20226;-76
2022/09/18 15:14:31;;;;;;;0.00;0.00;;;;;;;13.87;66.63;97620.72;8416554;28;20238;-78
2022/09/18 15:18:42;;;;;;;0.00;0.00;;;;;;;13.77;65.94;97617.03;8416219;28;20530;-76
2022/09/18 15:22:45;;;;;;;0.00;0.00;;;;;;;13.18;67.34;97614.56;8416372;28;20517;-76
2022/09/18 15:26:51;;;;;;;0.00;0.00;;;;;;;13.51;66.96;97606.47;8415697;28;20243;-76
2022/09/18 15:31:02;;;;;;;0.10;0.10;;;;;;;13.47;66.51;97605.84;8415953;28;20301;-76
2022/09/18 15:35:07;;;;;;;0.00;0.00;;;;;;;13.41;67.37;97605.38;8415759;28;20241;-77
2022/09/18 15:39:31;;;;;;;0.00;0.00;;;;;;;13.55;66.65;97609.72;8415939;28;20272;-77
2022/09/18 15:43:42;;;;;;;0.10;0.10;;;;;;;13.28;67.53;97608.69;8415625;28;20246;-77
2022/09/18 15:47:45;;;;;;;0.00;0.00;;;;;;;13.50;66.63;97597.03;8415150;28;20242;-76
2022/09/18 15:51:48;;;;;;;0.00;0.00;;;;;;;13.44;67.50;97605.19;8414928;28;20264;-77
2022/09/18 15:55:54;;;;;;;0.00;0.00;;;;;;;13.38;67.15;97606.38;8415201;28;20250;-77
2022/09/18 15:59:58;;;;;;;0.00;0.00;;;;;;;13.44;67.14;97603.44;8414835;28;20284;-76
2022/09/18 16:04:21;;;;;;;0.10;0.10;;;;;;;13.45;67.53;97596.47;8414610;28;20242;-76
2022/09/18 16:08:27;;;;;;;0.00;0.00;;;;;;;13.41;67.57;97593.22;8412059;28;20269;-77
2022/09/18 16:12:38;;;;;;;0.00;0.00;;;;;;;13.35;67.17;97587.56;8414766;28;20231;-77
2022/09/18 16:16:42;;;;;;;0.00;0.00;;;;;;;13.26;68.25;97592.34;8414509;28;20441;-76
2022/09/18 16:21:00;;;;;;;0.00;0.00;;;;;;;13.56;67.06;97580.19;8414340;28;20297;-77
2022/09/18 16:25:12;;;;;;;0.00;0.00;;;;;;;13.64;67.01;97585.75;8414071;28;20231;-76
2022/09/18 16:29:18;;;;;;;0.00;0.00;;;;;;;13.51;67.14;97585.66;8414217;28;20235;-76
2022/09/18 16:33:23;;;;;;;0.00;0.00;;;;;;;13.52;67.29;97579.56;8414236;28;20227;-76
2022/09/18 16:37:28;;;;;;;0.00;0.00;;;;;;;13.28;67.61;97574.88;8414116;28;20231;-76
2022/09/18 16:41:33;;;;;;;0.00;0.00;;;;;;;13.48;67.80;97573.69;8414090;28;20433;-77
2022/09/18 16:45:38;;;;;;;0.00;0.00;;;;;;;13.44;67.62;97559.22;8413545;28;20259;-76
2022/09/18 16:49:49;;;;;;;0.00;0.00;;;;;;;13.43;67.29;97567.13;8410676;28;20309;-75
2022/09/18 16:53:53;;;;;;;0.00;0.00;;;;;;;13.48;67.45;97562.47;8413626;28;20230;-75
2022/09/18 16:57:56;;;;;;;0.00;0.00;;;;;;;13.28;67.67;97563.66;8413337;28;20537;-73
2022/09/18 17:02:00;;;;;;;0.00;0.00;;;;;;;13.44;67.50;97567.03;8413493;28;20235;-73
2022/09/18 17:06:08;;;;;;;0.00;0.00;;;;;;;13.52;67.55;97568.28;8413112;28;20302;-77
2022/09/18 17:10:11;;;;;;;0.00;0.00;;;;;;;13.39;67.53;97553.47;8412936;28;20235;-77
2022/09/18 17:14:14;;;;;;;0.00;0.00;;;;;;;13.50;67.50;97552.81;8412966;28;20222;-73
2022/09/18 17:18:17;;;;;;;0.00;0.00;;;;;;;13.53;67.32;97556.97;8413217;28;20460;-77
2022/09/18 17:22:21;;;;;;;0.00;0.00;;;;;;;13.51;66.62;97554.44;8413064;28;20226;-78
2022/09/18 17:26:27;;;;;;;0.00;0.00;;;;;;;13.62;67.25;97549.41;8413322;28;20234;-75
2022/09/18 17:30:30;;;;;;;0.00;0.00;;;;;;;13.64;66.54;97542.34;8412995;28;20288;-75
2022/09/18 17:34:33;;;;;;;0.00;0.00;;;;;;;13.73;66.20;97546.13;8413048;28;20234;-75
2022/09/18 17:38:38;;;;;;;0.00;0.00;;;;;;;13.45;67.52;97550.47;8412796;28;20238;-75
2022/09/18 17:42:40;;;;;;;0.00;0.00;;;;;;;13.56;66.56;97548.97;8412886;28;20231;-77
2022/09/18 17:46:44;;;;;;;0.00;0.00;;;;;;;13.44;66.86;97555.75;8412588;28;20243;-76
2022/09/18 17:50:46;;;;;;;0.10;0.10;;;;;;;13.51;66.47;97558.84;8412323;28;20239;-74
2022/09/18 17:54:51;;;;;;;0.00;0.00;;;;;;;13.56;66.57;97554.19;8412431;28;20317;-77
2022/09/18 17:58:56;;;;;;;0.00;0.00;;;;;;;13.49;66.68;97553.72;8412840;28;20276;-74
2022/09/18 18:02:59;;;;;;;0.00;0.00;;;;;;;13.62;66.23;97551.19;8412592;28;20530;-76
2022/09/18 18:07:02;;;;;;;0.00;0.00;;;;;;;13.55;66.56;97560.31;8412396;28;20234;-76
2022/09/18 18:11:07;;;;;;;0.00;0.00;;;;;;;13.67;66.12;97562.16;8412381;28;20230;-72
2022/09/18 18:15:10;;;;;;;0.00;0.00;;;;;;;13.56;66.41;97565.41;8412434;28;20230;-74
2022/09/18 18:19:13;;;;;;;0.10;0.10;;;;;;;13.67;65.92;97557.78;8412234;28;20231;-74
2022/09/18 18:23:16;;;;;;;0.10;0.10;;;;;;;13.46;66.40;97567.75;8414263;28;20234;-75
2022/09/18 18:27:21;;;;;;;0.00;0.00;;;;;;;13.43;66.54;97561.91;8418030;28;20242;-74
2022/09/18 18:31:24;;;;;;;0.10;0.10;;;;;;;13.33;66.87;97579.00;8418070;28;20242;-74
2022/09/18 18:35:27;;;;;;;0.07;0.07;;;;;;;13.55;66.42;97573.31;8417812;28;20541;-74
2022/09/18 18:39:30;;;;;;;0.00;0.00;;;;;;;13.88;71.00;97568.56;8417809;28;20237;-75
2022/09/18 18:43:36;;;;;;;0.00;0.00;;;;;;;14.27;67.61;97558.28;8417774;28;20230;-75
2022/09/18 18:47:39;;;;;;;0.00;0.00;;;;;;;13.54;64.76;97566.44;8417289;28;20514;-75
2022/09/18 18:51:46;;;;;;;0.00;0.00;;;;;;;13.38;65.56;97563.94;8417244;28;20250;-73
2022/09/18 18:55:50;;;;;;;0.00;0.00;;;;;;;13.33;65.74;97569.44;8416812;28;20239;-72
2022/09/18 18:59:56;;;;;;;0.00;0.00;;;;;;;13.15;65.66;97573.97;8417263;28;20231;-76
2022/09/18 19:04:00;;;;;;;0.00;0.00;;;;;;;13.08;66.41;97585.69;8416948;28;20238;-78
2022/09/18 19:08:04;;;;;;;0.10;0.10;;;;;;;13.11;66.12;97575.91;8416587;28;20517;-79
2022/09/18 19:12:06;;;;;;;0.00;0.00;;;;;;;12.85;67.32;97568.84;8416860;28;20237;-77
2022/09/18 19:16:12;;;;;;;0.00;0.00;;;;;;;13.22;66.08;97558.84;8416915;28;20223;-77
2022/09/18 19:20:15;;;;;;;0.00;0.00;;;;;;;13.01;66.21;97567.00;8416542;28;20233;-76